createdAt,value
2018-11-01T00:02:33.968Z,5.47
2018-11-01T00:05:17.573Z,5.43
2018-11-01T00:08:00.951Z,5.40
2018-11-01T00:10:44.803Z,4.57
2018-11-01T00:13:28.260Z,5.50
2018-11-01T00:16:11.120Z,4.33
2018-11-01T00:18:53.460Z,4.23
2018-11-01T00:21:37.486Z,6.83
2018-11-01T00:24:20.123Z,6.13
2018-11-01T00:27:03.154Z,4.27
2018-11-01T00:29:45.849Z,4.93
2018-11-01T00:32:30.039Z,3.87
2018-11-01T00:35:13.186Z,3.80
2018-11-01T00:37:57.219Z,3.90
2018-11-01T00:40:41.254Z,4.60
2018-11-01T00:43:24.475Z,4.37
2018-11-01T00:46:07.404Z,3.30
2018-11-01T00:48:50.943Z,4.60
2018-11-01T00:51:35.059Z,3.93
2018-11-01T00:54:17.734Z,4.00
2018-11-01T00:57:00.419Z,3.47
2018-11-01T00:59:43.538Z,3.73
2018-11-01T01:02:26.654Z,2.87
2018-11-01T01:05:10.705Z,2.93
2018-11-01T01:07:53.417Z,4.10
2018-11-01T01:10:35.399Z,2.87
2018-11-01T01:13:18.100Z,2.67
2018-11-01T01:16:00.564Z,3.27
2018-11-01T01:18:43.248Z,3.10
2018-11-01T01:21:26.533Z,2.90
2018-11-01T01:24:09.050Z,3.30
2018-11-01T01:26:52.184Z,3.23
2018-11-01T01:29:34.082Z,3.23
2018-11-01T01:32:16.846Z,3.30
2018-11-01T01:35:00.366Z,3.97
2018-11-01T01:37:46.031Z,4.57
2018-11-01T01:40:29.092Z,3.83
2018-11-01T01:43:13.183Z,3.57
2018-11-01T01:45:56.300Z,3.10
2018-11-01T01:48:38.395Z,3.57
2018-11-01T01:51:21.515Z,2.93
2018-11-01T01:54:03.811Z,3.47
2018-11-01T01:56:46.481Z,3.30
2018-11-01T01:59:29.791Z,3.83
2018-11-01T02:02:13.030Z,2.83
2018-11-01T02:04:55.735Z,3.17
2018-11-01T02:07:39.126Z,3.10
2018-11-01T02:10:21.386Z,3.33
2018-11-01T02:13:04.284Z,3.03
2018-11-01T02:15:47.299Z,3.13
2018-11-01T02:18:30.448Z,4.23
2018-11-01T02:21:12.807Z,3.53
2018-11-01T02:23:56.136Z,3.33
2018-11-01T02:26:39.542Z,4.30
2018-11-01T02:29:21.570Z,3.20
2018-11-01T02:32:04.818Z,2.37
2018-11-01T02:34:48.040Z,2.67
2018-11-01T02:37:30.355Z,4.10
2018-11-01T02:40:13.668Z,2.90
2018-11-01T02:42:56.413Z,3.53
2018-11-01T02:45:38.928Z,2.90
2018-11-01T02:48:22.563Z,3.03
2018-11-01T02:51:05.265Z,3.40
2018-11-01T02:53:47.646Z,4.90
2018-11-01T02:56:30.458Z,5.53
2018-11-01T02:59:13.765Z,3.40
2018-11-01T03:01:56.823Z,3.23
2018-11-01T03:04:40.394Z,3.63
2018-11-01T03:07:23.126Z,3.07
2018-11-01T03:10:06.982Z,4.00
2018-11-01T03:12:49.701Z,5.30
2018-11-01T03:15:32.055Z,3.20
2018-11-01T03:18:16.315Z,3.47
2018-11-01T03:20:59.548Z,4.87
2018-11-01T03:23:42.866Z,3.67
2018-11-01T03:26:25.562Z,3.33
2018-11-01T03:29:07.667Z,3.80
2018-11-01T03:31:54.555Z,3.77
2018-11-01T03:34:36.956Z,4.10
2018-11-01T03:37:19.954Z,3.10
2018-11-01T03:40:03.027Z,3.37
2018-11-01T03:42:45.916Z,3.50
2018-11-01T03:45:28.262Z,3.70
2018-11-01T03:48:10.595Z,3.83
2018-11-01T03:50:54.067Z,3.70
2018-11-01T03:53:36.717Z,3.07
2018-11-01T03:56:19.592Z,2.93
2018-11-01T03:59:02.199Z,3.20
2018-11-01T04:01:44.668Z,3.90
2018-11-01T04:04:26.864Z,3.87
2018-11-01T04:07:09.853Z,3.47
2018-11-01T04:09:52.283Z,3.07
2018-11-01T04:12:34.894Z,3.23
2018-11-01T04:15:17.667Z,2.80
2018-11-01T04:18:00.238Z,3.00
2018-11-01T04:20:42.670Z,2.50
2018-11-01T04:23:25.727Z,3.53
2018-11-01T04:26:07.933Z,3.27
2018-11-01T04:28:51.000Z,4.63
2018-11-01T04:31:33.447Z,4.13
2018-11-01T04:34:15.755Z,3.70
2018-11-01T04:36:58.624Z,3.80
2018-11-01T04:39:41.412Z,4.30
2018-11-01T04:42:24.025Z,4.53
2018-11-01T04:45:08.589Z,3.07
2018-11-01T04:47:51.884Z,3.23
2018-11-01T04:50:34.658Z,3.13
2018-11-01T04:53:17.986Z,3.60
2018-11-01T04:56:00.488Z,3.70
2018-11-01T04:58:43.729Z,4.90
2018-11-01T05:01:26.786Z,4.07
2018-11-01T05:04:09.016Z,3.67
2018-11-01T05:06:51.554Z,4.43
2018-11-01T05:09:33.746Z,3.70
2018-11-01T05:12:16.806Z,5.63
2018-11-01T05:14:59.518Z,6.30
2018-11-01T05:17:42.156Z,3.63
2018-11-01T05:20:24.574Z,4.10
2018-11-01T05:23:07.294Z,5.20
2018-11-01T05:25:49.807Z,3.80
2018-11-01T05:28:31.808Z,3.57
2018-11-01T05:31:15.427Z,4.70
2018-11-01T05:33:58.539Z,4.07
2018-11-01T05:36:41.519Z,3.87
2018-11-01T05:39:26.059Z,4.83
2018-11-01T05:42:09.197Z,4.60
2018-11-01T05:44:51.679Z,5.27
2018-11-01T05:47:34.283Z,5.30
2018-11-01T05:50:17.018Z,5.97
2018-11-01T05:52:59.395Z,7.83
2018-11-01T05:55:42.187Z,4.70
2018-11-01T05:58:24.983Z,3.67
2018-11-01T06:01:11.686Z,5.00
2018-11-01T06:03:55.529Z,8.03
2018-11-01T06:06:38.511Z,12.50
2018-11-01T06:09:26.992Z,7.33
2018-11-01T06:12:09.771Z,6.73
2018-11-01T06:14:52.072Z,5.80
2018-11-01T06:17:34.987Z,12.97
2018-11-01T06:20:18.203Z,11.77
2018-11-01T06:23:00.835Z,10.30
2018-11-01T06:25:43.734Z,5.30
2018-11-01T06:28:26.908Z,7.00
2018-11-01T06:31:09.975Z,6.03
2018-11-01T06:33:53.368Z,8.67
2018-11-01T06:36:36.274Z,6.40
2018-11-01T06:39:21.121Z,6.07
2018-11-01T06:42:04.243Z,8.77
2018-11-01T06:44:48.219Z,6.87
2018-11-01T06:47:30.792Z,6.03
2018-11-01T06:50:14.146Z,6.67
2018-11-01T06:52:58.282Z,7.53
2018-11-01T06:55:40.971Z,11.70
2018-11-01T06:58:24.912Z,15.40
2018-11-01T07:01:07.581Z,14.90
2018-11-01T07:03:50.399Z,17.43
2018-11-01T07:06:33.726Z,13.27
2018-11-01T07:09:18.072Z,11.27
2018-11-01T07:12:01.299Z,10.17
2018-11-01T07:14:44.603Z,9.07
2018-11-01T07:17:28.110Z,12.03
2018-11-01T07:20:11.916Z,11.53
2018-11-01T07:22:54.579Z,15.77
2018-11-01T07:25:37.765Z,15.90
2018-11-01T07:28:20.708Z,14.37
2018-11-01T07:31:03.836Z,14.73
2018-11-01T07:33:46.779Z,14.50
2018-11-01T07:36:29.374Z,10.30
2018-11-01T07:39:12.515Z,13.60
2018-11-01T07:41:54.954Z,13.40
2018-11-01T07:44:37.434Z,12.20
2018-11-01T07:47:21.006Z,13.27
2018-11-01T07:50:04.839Z,13.13
2018-11-01T07:52:47.448Z,10.93
2018-11-01T07:55:30.335Z,12.97
2018-11-01T07:58:12.787Z,11.23
2018-11-01T08:00:55.651Z,11.90
2018-11-01T08:03:38.843Z,10.60
2018-11-01T08:06:22.334Z,9.77
2018-11-01T08:09:06.381Z,9.80
2018-11-01T08:11:49.486Z,8.60
2018-11-01T08:14:33.940Z,9.57
2018-11-01T08:17:17.216Z,15.63
2018-11-01T08:20:00.088Z,16.40
2018-11-01T08:22:43.450Z,19.27
2018-11-01T08:25:26.336Z,19.20
2018-11-01T08:28:08.789Z,13.27
2018-11-01T08:30:51.671Z,11.97
2018-11-01T08:33:36.640Z,8.33
2018-11-01T08:36:20.296Z,7.50
2018-11-01T08:39:03.994Z,6.37
2018-11-01T08:41:47.555Z,6.73
2018-11-01T08:44:31.156Z,8.87
2018-11-01T08:47:16.687Z,5.73
2018-11-01T08:49:59.523Z,5.50
2018-11-01T08:52:43.361Z,5.37
2018-11-01T08:55:26.338Z,5.20
2018-11-01T08:58:10.189Z,5.03
2018-11-01T09:00:52.921Z,5.70
2018-11-01T09:03:35.719Z,4.63
2018-11-01T09:06:20.491Z,5.13
2018-11-01T09:09:03.990Z,5.90
2018-11-01T09:11:47.303Z,5.43
2018-11-01T09:14:31.989Z,5.90
2018-11-01T09:17:15.955Z,8.13
2018-11-01T09:19:59.410Z,5.90
2018-11-01T09:22:42.763Z,7.90
2018-11-01T09:25:26.075Z,8.30
2018-11-01T09:28:10.263Z,6.90
2018-11-01T09:30:52.733Z,6.60
2018-11-01T09:33:35.900Z,6.37
2018-11-01T09:36:19.080Z,6.17
2018-11-01T09:39:02.003Z,6.37
2018-11-01T09:41:45.084Z,5.90
2018-11-01T09:44:27.644Z,6.73
2018-11-01T09:47:11.507Z,6.47
2018-11-01T09:49:54.467Z,5.93
2018-11-01T09:52:36.576Z,5.97
2018-11-01T09:55:19.966Z,8.20
2018-11-01T09:58:03.510Z,6.13
2018-11-01T10:00:47.163Z,7.07
2018-11-01T10:03:29.927Z,5.90
2018-11-01T10:06:12.500Z,9.37
2018-11-01T10:08:55.339Z,6.63
2018-11-01T10:11:38.240Z,5.97
2018-11-01T10:14:21.656Z,7.47
2018-11-01T10:17:05.367Z,6.73
2018-11-01T10:19:48.119Z,7.93
2018-11-01T10:22:31.324Z,6.70
2018-11-01T10:25:15.461Z,6.50
2018-11-01T10:27:58.432Z,6.53
2018-11-01T10:30:43.051Z,6.13
2018-11-01T10:33:26.154Z,6.73
2018-11-01T10:36:09.646Z,6.67
2018-11-01T10:38:53.002Z,8.03
2018-11-01T10:41:35.776Z,6.40
2018-11-01T10:44:19.049Z,7.57
2018-11-01T10:47:03.339Z,5.73
2018-11-01T10:49:46.245Z,6.00
2018-11-01T10:52:30.011Z,6.73
2018-11-01T10:55:14.164Z,7.87
2018-11-01T10:57:56.558Z,7.63
2018-11-01T11:00:46.017Z,7.87
2018-11-01T11:03:28.739Z,6.47
2018-11-01T11:06:12.080Z,7.70
2018-11-01T11:08:55.804Z,7.73
2018-11-01T11:11:38.152Z,12.67
2018-11-01T11:14:22.777Z,9.67
2018-11-01T11:17:06.108Z,10.60
2018-11-01T11:19:49.455Z,9.37
2018-11-01T11:22:32.466Z,11.27
2018-11-01T11:25:15.135Z,11.60
2018-11-01T11:27:59.062Z,8.57
2018-11-01T11:30:41.373Z,7.23
2018-11-01T11:33:24.611Z,6.97
2018-11-01T11:36:07.831Z,9.77
2018-11-01T11:38:50.902Z,7.23
2018-11-01T11:41:33.266Z,6.80
2018-11-01T11:44:15.823Z,8.07
2018-11-01T11:46:58.981Z,8.13
2018-11-01T11:49:42.207Z,7.63
2018-11-01T11:52:25.043Z,7.57
2018-11-01T11:55:09.118Z,8.80
2018-11-01T11:57:53.231Z,7.40
2018-11-01T12:00:35.807Z,7.07
2018-11-01T12:03:18.712Z,7.07
2018-11-01T12:06:05.946Z,7.43
2018-11-01T12:08:48.982Z,7.37
2018-11-01T12:11:32.656Z,6.60
2018-11-01T12:14:15.501Z,6.67
2018-11-01T12:16:58.243Z,7.47
2018-11-01T12:19:41.521Z,8.37
2018-11-01T12:22:25.327Z,7.50
2018-11-01T12:25:09.739Z,6.97
2018-11-01T12:27:53.077Z,9.53
2018-11-01T12:30:36.075Z,10.30
2018-11-01T12:33:19.003Z,8.27
2018-11-01T12:36:01.510Z,7.83
2018-11-01T12:38:43.784Z,7.43
2018-11-01T12:41:26.359Z,7.17
2018-11-01T12:44:10.712Z,8.00
2018-11-01T12:46:54.251Z,7.20
2018-11-01T12:49:39.312Z,8.57
2018-11-01T12:52:21.945Z,8.40
2018-11-01T12:55:04.561Z,7.90
2018-11-01T13:01:16.549Z,6.57
2018-11-01T13:03:59.352Z,7.67
2018-11-01T13:06:42.260Z,7.83
2018-11-01T13:09:26.873Z,9.50
2018-11-01T13:12:10.683Z,7.07
2018-11-01T13:14:54.435Z,8.63
2018-11-01T13:17:47.731Z,7.40
2018-11-01T13:20:35.892Z,9.23
2018-11-01T13:23:51.178Z,6.47
2018-11-01T13:26:35.327Z,5.67
2018-11-01T13:29:22.523Z,6.40
2018-11-01T13:32:07.971Z,6.63
2018-11-01T13:34:53.311Z,7.10
2018-11-01T13:37:37.291Z,6.10
2018-11-01T13:40:20.495Z,6.33
2018-11-01T13:43:07.205Z,7.03
2018-11-01T13:45:52.874Z,6.63
2018-11-01T13:51:29.936Z,10.40
2018-11-01T13:54:13.409Z,8.90
2018-11-01T13:56:56.451Z,10.47
2018-11-01T13:59:39.935Z,8.30
2018-11-01T14:02:23.252Z,7.57
2018-11-01T14:05:10.980Z,7.90
2018-11-01T14:07:54.412Z,6.40
2018-11-01T14:10:38.354Z,6.63
2018-11-01T14:13:23.781Z,6.80
2018-11-01T14:16:08.371Z,7.87
2018-11-01T14:18:53.168Z,7.43
2018-11-01T14:21:36.306Z,7.40
2018-11-01T14:24:18.653Z,7.70
2018-11-01T14:27:01.694Z,8.27
2018-11-01T14:29:46.239Z,6.60
2018-11-01T14:32:28.923Z,8.27
2018-11-01T14:35:12.388Z,9.03
2018-11-01T14:37:56.056Z,7.90
2018-11-01T14:40:38.748Z,7.67
2018-11-01T14:43:21.325Z,7.30
2018-11-01T14:46:04.917Z,8.37
2018-11-01T14:48:47.644Z,9.03
2018-11-01T14:51:31.558Z,12.27
2018-11-01T14:54:26.824Z,14.00
2018-11-01T14:57:11.418Z,14.10
2018-11-01T14:59:54.435Z,14.10
2018-11-01T15:02:38.140Z,13.07
2018-11-01T15:05:22.651Z,13.90
2018-11-01T15:08:05.478Z,16.67
2018-11-01T15:10:48.592Z,15.10
2018-11-01T15:13:32.126Z,16.63
2018-11-01T15:16:16.180Z,17.10
2018-11-01T15:19:00.468Z,17.40
2018-11-01T15:21:52.263Z,23.73
2018-11-01T15:24:36.894Z,18.80
2018-11-01T15:27:25.257Z,18.93
2018-11-01T15:30:11.841Z,19.33
2018-11-01T15:32:54.971Z,20.17
2018-11-01T15:35:39.006Z,19.23
2018-11-01T15:38:22.383Z,23.13
2018-11-01T15:41:12.915Z,20.03
2018-11-01T15:43:56.566Z,22.00
2018-11-01T15:46:41.500Z,25.47
2018-11-01T15:49:25.957Z,24.80
2018-11-01T15:52:13.144Z,23.87
2018-11-01T15:55:04.323Z,27.10
2018-11-01T15:57:47.647Z,27.23
2018-11-01T16:00:32.931Z,29.30
2018-11-01T16:03:15.190Z,30.67
2018-11-01T16:05:58.908Z,32.63
2018-11-01T16:08:42.020Z,26.47
2018-11-01T16:11:24.946Z,25.97
2018-11-01T16:14:09.016Z,21.23
2018-11-01T16:16:51.683Z,25.03
2018-11-01T16:19:35.231Z,30.70
2018-11-01T16:22:18.219Z,30.70
2018-11-01T16:25:01.315Z,21.63
2018-11-01T16:27:46.579Z,22.40
2018-11-01T16:30:30.706Z,22.13
2018-11-01T16:33:14.968Z,25.03
2018-11-01T16:36:02.255Z,24.73
2018-11-01T16:38:46.857Z,22.43
2018-11-01T16:41:29.220Z,25.23
2018-11-01T16:44:12.094Z,22.20
2018-11-01T16:46:54.578Z,23.53
2018-11-01T16:49:39.776Z,28.57
2018-11-01T16:52:22.988Z,27.10
2018-11-01T16:55:06.342Z,24.87
2018-11-01T16:57:49.975Z,26.93
2018-11-01T17:00:35.181Z,26.20
2018-11-01T17:03:18.998Z,25.60
2018-11-01T17:06:02.988Z,24.03
2018-11-01T17:08:46.111Z,21.90
2018-11-01T17:11:29.046Z,21.83
2018-11-01T17:14:12.316Z,23.13
2018-11-01T17:16:55.170Z,20.80
2018-11-01T17:19:39.267Z,20.23
2018-11-01T17:22:21.565Z,21.63
2018-11-01T17:25:04.016Z,20.63
2018-11-01T17:27:48.029Z,20.87
2018-11-01T17:30:32.801Z,17.87
2018-11-01T17:33:15.228Z,16.90
2018-11-01T17:35:58.722Z,15.07
2018-11-01T17:38:43.046Z,18.27
2018-11-01T17:41:26.794Z,18.30
2018-11-01T17:44:10.156Z,17.83
2018-11-01T17:46:53.311Z,16.90
2018-11-01T17:49:36.274Z,14.67
2018-11-01T17:52:19.620Z,20.73
2018-11-01T17:55:02.660Z,17.57
2018-11-01T17:57:45.503Z,16.97
2018-11-01T18:00:29.897Z,18.67
2018-11-01T18:03:12.856Z,17.10
2018-11-01T18:05:55.763Z,17.77
2018-11-01T18:08:38.141Z,21.50
2018-11-01T18:11:21.026Z,17.33
2018-11-01T18:14:03.651Z,23.67
2018-11-01T18:16:46.304Z,22.70
2018-11-01T18:19:29.138Z,19.93
2018-11-01T18:22:11.918Z,17.00
2018-11-01T18:24:54.736Z,22.13
2018-11-01T18:27:39.179Z,19.67
2018-11-01T18:30:22.721Z,21.13
2018-11-01T18:33:08.981Z,18.13
2018-11-01T18:35:52.008Z,17.47
2018-11-01T18:38:35.264Z,15.47
2018-11-01T18:41:21.766Z,16.93
2018-11-01T18:44:09.742Z,16.47
2018-11-01T18:46:53.884Z,14.40
2018-11-01T18:49:39.064Z,15.63
2018-11-01T18:52:25.131Z,20.03
2018-11-01T18:55:10.577Z,16.40
2018-11-01T18:57:54.233Z,19.67
2018-11-01T19:00:37.895Z,28.60
2018-11-01T19:03:26.582Z,15.17
2018-11-01T19:06:09.956Z,13.20
2018-11-01T19:08:57.595Z,12.33
2018-11-01T19:11:41.120Z,12.77
2018-11-01T19:14:25.567Z,11.10
2018-11-01T19:17:11.769Z,11.00
2018-11-01T19:19:55.632Z,11.47
2018-11-01T19:22:41.607Z,10.77
2018-11-01T19:25:27.620Z,11.07
2018-11-01T19:28:13.897Z,11.87
2018-11-01T19:31:00.231Z,11.77
2018-11-01T19:33:44.097Z,12.43
2018-11-01T19:36:29.073Z,11.57
2018-11-01T19:39:17.146Z,10.87
2018-11-01T19:42:00.600Z,13.13
2018-11-01T19:44:43.367Z,11.90
2018-11-01T19:47:25.986Z,13.13
2018-11-01T19:50:13.479Z,9.63
2018-11-01T19:52:56.835Z,11.90
2018-11-01T19:55:39.777Z,9.43
2018-11-01T19:58:23.879Z,9.57
2018-11-01T20:01:06.704Z,11.27
2018-11-01T20:03:50.542Z,8.43
2018-11-01T20:06:34.858Z,9.33
2018-11-01T20:09:17.507Z,10.50
2018-11-01T20:12:02.169Z,8.53
2018-11-01T20:14:45.139Z,10.03
2018-11-01T20:17:28.122Z,10.70
2018-11-01T20:20:14.978Z,10.77
2018-11-01T20:22:57.144Z,10.13
2018-11-01T20:25:41.293Z,8.30
2018-11-01T20:28:25.337Z,9.07
2018-11-01T20:31:09.028Z,9.17
2018-11-01T20:33:51.587Z,7.80
2018-11-01T20:36:36.043Z,8.10
2018-11-01T20:39:19.983Z,7.67
2018-11-01T20:42:02.183Z,9.37
2018-11-01T20:44:48.308Z,7.30
2018-11-01T20:47:30.658Z,8.87
2018-11-01T20:50:14.068Z,7.40
2018-11-01T20:52:57.010Z,7.63
2018-11-01T20:55:40.684Z,6.03
2018-11-01T20:58:23.034Z,7.17
2018-11-01T21:01:05.927Z,8.83
2018-11-01T21:03:48.833Z,7.43
2018-11-01T21:06:34.018Z,7.47
2018-11-01T21:09:17.014Z,8.40
2018-11-01T21:12:01.369Z,6.43
2018-11-01T21:14:44.240Z,6.97
2018-11-01T21:17:27.346Z,6.97
2018-11-01T21:20:09.892Z,6.20
2018-11-01T21:22:53.952Z,7.13
2018-11-01T21:25:37.826Z,9.20
2018-11-01T21:28:21.423Z,6.93
2018-11-01T21:31:04.237Z,6.30
2018-11-01T21:33:47.813Z,6.63
2018-11-01T21:36:30.900Z,9.70
2018-11-01T21:39:15.265Z,7.00
2018-11-01T21:41:58.681Z,8.83
2018-11-01T21:44:42.976Z,7.20
2018-11-01T21:47:26.379Z,7.40
2018-11-01T21:50:10.663Z,9.07
2018-11-01T21:52:53.404Z,8.10
2018-11-01T21:55:36.814Z,9.40
2018-11-01T21:58:19.625Z,10.20
2018-11-01T22:01:03.863Z,7.57
2018-11-01T22:03:46.323Z,9.23
2018-11-01T22:06:29.111Z,9.30
2018-11-01T22:09:11.609Z,9.77
2018-11-01T22:11:55.583Z,12.30
2018-11-01T22:14:39.471Z,11.90
2018-11-01T22:17:24.464Z,9.50
2018-11-01T22:20:08.367Z,8.97
2018-11-01T22:22:51.871Z,10.27
2018-11-01T22:25:35.572Z,10.30
2018-11-01T22:28:19.780Z,12.17
2018-11-01T22:31:02.241Z,10.60
2018-11-01T22:33:44.823Z,12.20
2018-11-01T22:36:28.179Z,11.43
2018-11-01T22:39:12.728Z,10.83
2018-11-01T22:41:55.695Z,11.83
2018-11-01T22:44:40.141Z,11.27
2018-11-01T22:47:23.330Z,12.73
2018-11-01T22:50:07.816Z,12.53
2018-11-01T22:52:51.078Z,10.83
2018-11-01T22:55:34.243Z,11.97
2018-11-01T22:58:16.914Z,10.33
2018-11-01T23:00:59.367Z,9.63
2018-11-01T23:03:42.747Z,13.27
2018-11-01T23:06:26.035Z,9.60
2018-11-01T23:09:10.699Z,10.10
2018-11-01T23:12:02.107Z,10.77
2018-11-01T23:14:44.971Z,11.10
2018-11-01T23:17:28.558Z,10.27
2018-11-01T23:20:14.749Z,11.73
2018-11-01T23:22:57.719Z,11.53
2018-11-01T23:25:40.011Z,10.37
2018-11-01T23:28:22.604Z,11.43
2018-11-01T23:31:04.855Z,10.80
2018-11-01T23:33:48.423Z,10.53
2018-11-01T23:36:36.185Z,11.20
2018-11-01T23:43:08.544Z,9.87
2018-11-01T23:45:58.109Z,10.03
2018-11-01T23:48:40.840Z,9.03
2018-11-01T23:51:23.742Z,9.60
2018-11-01T23:54:06.678Z,9.07
2018-11-01T23:56:50.232Z,10.43
2018-11-01T23:59:35.069Z,11.30
